Panama City, FL (32401)

1:12 PM CDT on April 23, 2017 (GMT -0500)
The Cove | | Change Station

Elev 15 ft 30.16 °N, 85.65 °W | Updated 5 seconds ago

Overcast
Overcast
80.1 °F
Feels Like 82 °F
N
1.3
Wind Variable Wind from SW
Gusts 2.5 mph

Today
High -- | Low -- °F
--% Chance of Precip.
Yesterday
High -- | Low -- °F
Precip. -- in
Pressure 29.82 in
Visibility 10.0 miles
Clouds Mostly Cloudy 1600 ft
Heat Index 82 °F
Dew Point 67 °F
Humidity 64%
Rainfall 0.00 in
Snow Depth Not available.
6:06 AM 7:15 PM
Waning Crescent, 10% visible
METAR KPAM 231757Z 18012G18KT 10SM BKN016 26/21 A2981 RMK BKN V SCT SLP098 T02600205 10263 20224 58016 $
Pressure 29.82 in
Visibility 10.0 miles
Clouds Mostly Cloudy 1600 ft
Heat Index 82 °F
Dew Point 67 °F
Humidity 64%
Rainfall 0.00 in
Snow Depth Not available.
6:06 AM 7:15 PM
Waning Crescent, 10% visible
METAR KPAM 231757Z 18012G18KT 10SM BKN016 26/21 A2981 RMK BKN V SCT SLP098 T02600205 10263 20224 58016 $

Get Severe Weather Alerts

Thanks for signing up!

Be on the lookout for a verification email in your inbox.

You'll start receiving the daily forecast at 8 AM.

×

10-Day Weather Forecast

Almanac

Astronomy

Apr. 23, 2017 Rise Set
Actual Time
Civil Twilight
Nautical Twilight
Astronomical Twilight
Moon
Length of Visible Light
Length of Day
Tomorrow will be .
, % of the Moon is Illuminated

Today's Extremes

State Highs State Lows

Community

WunderPhotos

WunderBlog® & News

Nearby

Air Quality

  Air Quality AQ Index Pollutant
Not available.

Snow Depth

Station Depth Elevation

Earthquake Activity

City Distance Mag. Time & Date
Minimum magnitude displayed is 2.5.

Coastal Water Temperatures

Place Temperature

Stations

Nearby Weather Stations

Station Location Temp. Windchill Dew Point Humidity Wind Precip. Elev Updated Type
                   

Watches & Warnings

There are currently no watches in effect.